Motte Rimrock Reserve, California Weather observations

Data are for 10 minute period ending at time listed.
 Day   Time   Solar   Ave.   Ave.  Ave.  Vector  Max.   Baro.   Total    
  of    of     Rad.   Air    Rel.  Wind   Wind   Wind  Press.  Precip.   
Year   Day            Temp.  Hum.  Speed  Dir.   Gust                    
2016   (PST)  Kw/m2    F      %     mph   deg.    mph    mb.     in.     
-------------------------------------------------------------------------
 337    5:30   0.00   49.3    28   20.1   354    26.7   945.2    0.00 
 337    5:40   0.00   49.1    28   20.2   350    26.7   945.4    0.00 
 337    5:50   0.00   48.8    28   20.7   349    28.6   945.5    0.00 
 337    6:00   0.00   48.7    28   19.9   349    27.4   945.6    0.00 
 337    6:10   0.00   48.5    27   21.6   351    29.1   945.7    0.00 
 337    6:20   0.00   48.5    27   22.2   353    29.2   945.8    0.00 
 337    6:30   0.00   48.1    28   22.0   348    28.7   945.8    0.00 
 337    6:40   0.00   47.9    28   24.3   347    31.6   945.8    0.00 
 337    6:50   0.00   47.9    27   26.3   349    34.6   946.0    0.00 
 337    7:00   0.01   47.8    27   24.1   349    32.0   946.1    0.00 
 337    7:10   0.04   47.9    26   23.2   357    33.0   946.0    0.00 
 337    7:20   0.07   47.9    25   23.5   358    32.3   946.1    0.00 
 337    7:30   0.10   47.9    25   23.3   359    31.3   946.1    0.00 
 337    7:40   0.13   48.0    24   23.4   357    33.5   946.2    0.00 
 337    7:50   0.16   48.5    23   24.5   354    34.3   946.5    0.00 
 337    8:00   0.19   48.8    22   22.7   352    31.0   946.7    0.00 
 337    8:10   0.22   49.0    21   22.4   350    30.7   946.9    0.00 
 337    8:20   0.25   49.2    21   21.0   344    32.6   946.8    0.00 
 337    8:30   0.28   49.5    21   21.7   341    30.2   947.0    0.00 
 337    8:40   0.30   49.7    20   18.8   339    25.3   947.3    0.00 
 337    8:50   0.33   49.9    20   17.5   338    27.4   947.5    0.00 
 337    9:00   0.35   50.3    20   19.5   347    28.8   947.5    0.00 
 337    9:10   0.38   50.5    20   22.2   353    30.0   947.5    0.00 
 337    9:20   0.40   50.9    20   22.3   354    31.0   947.6    0.00 
 337    9:30   0.43   51.4    20   22.2   354    32.7   947.7    0.00 
 337    9:40   0.45   51.7    19   25.8   356    35.8   947.7    0.00 
 337    9:50   0.47   51.7    19   26.1   356    38.2   947.8    0.00 
 337   10:00   0.49   51.8    19   24.2   345    32.7   947.9    0.00 
 337   10:10   0.51   52.0    20   22.9   348    34.8   948.0    0.00 
 337   10:20   0.52   52.5    19   25.0   352    35.4   947.8    0.00 
 337   10:30   0.53   52.8    19   23.6   352    31.0   947.9    0.00 
 337   10:40   0.55   53.2    19   23.3   356    31.9   947.8    0.00 
 337   10:50   0.56   53.2    19   23.4   358    34.5   947.8    0.00 
 337   11:00   0.56   53.6    18   23.7   358    30.8   947.7    0.00 
 337   11:10   0.57   53.7    18   23.3   358    32.2   947.6    0.00 
 337   11:20   0.58   54.4    18   18.8     1    28.3   947.6    0.00 
 337   11:30   0.56   54.5    18   20.7   359    35.2   947.4    0.00 
 337   11:40   0.58   55.0    18   21.5   358    34.8   947.4    0.00 
 337   11:50   0.58   54.9    18   20.2     3    30.8   947.4    0.00 
 337   12:00   0.58   54.7    18   21.4   352    31.3   947.4    0.00 
 337   12:10   0.58   54.8    17   22.5   344    35.0   947.3    0.00 
 337   12:20   0.57   54.6    18   24.8   346    34.5   947.3    0.00 
 337   12:30   0.57   54.5    17   25.7   343    34.6   947.1    0.00 
 337   12:40   0.56   54.6    17   26.1   349    35.5   946.9    0.00 
 337   12:50   0.55   55.0    17   24.7   345    33.5   947.0    0.00 
 337   13:00   0.54   55.0    17   25.5   349    34.7   946.9    0.00 
 337   13:10   0.52   55.0    17   25.0   347    35.4   946.8    0.00 
 337   13:20   0.51   55.0    16   24.1   342    32.4   946.8    0.00 
 337   13:30   0.49   55.5    16   22.4   341    31.3   946.7    0.00 
 337   13:40   0.47   55.0    16   25.5   345    33.5   946.6    0.00 
 337   13:50   0.45   55.3    16   23.3   344    32.9   946.6    0.00 
 337   14:00   0.43   55.6    15   23.5   354    33.0   946.6    0.00 
 337   14:10   0.39   55.3    15   24.6   351    37.8   946.6    0.00 
 337   14:20   0.38   55.4    15   22.4   355    33.1   946.7    0.00 
 337   14:30   0.36   55.1    15   25.0   350    33.4   946.7    0.00 
 337   14:40   0.33   55.3    15   21.6   352    33.8   946.7    0.00 
 337   14:50   0.30   55.0    15   24.2   353    33.7   946.8    0.00 
 337   15:00   0.27   54.8    15   22.2   352    31.3   946.9    0.00 
 337   15:10   0.24   54.5    15   24.7   351    34.0   946.8    0.00 
 337   15:20   0.21   54.4    15   22.2   353    32.6   947.0    0.00 
 337   15:30   0.19   54.3    15   24.0   354    33.9   947.1    0.00 
 337   15:40   0.16   53.8    15   25.4   354    35.4   947.2    0.00 
 337   15:50   0.13   53.5    15   24.0   356    33.6   947.3    0.00 
 337   16:00   0.10   53.3    16   20.5   360    31.0   947.4    0.00 
 337   16:10   0.07   52.9    16   21.3   353    28.4   947.4    0.00 
 337   16:20   0.04   52.4    16   20.7   352    28.1   947.4    0.00 
 337   16:30   0.02   52.1    16   19.5   355    26.5   947.4    0.00 
 337   16:40   0.00   51.6    17   20.5   358    29.0   947.4    0.00 
 337   16:50   0.00   51.3    17   20.9   357    29.7   947.5    0.00 
 337   17:00   0.00   51.0    17   21.2   354    28.0   947.5    0.00 
 337   17:10   0.00   50.7    17   19.6   357    27.2   947.6    0.00 
 337   17:20   0.00   50.6    17   20.0   353    31.0   947.6    0.00 
 337   17:30   0.00   50.4    17   19.8   354    27.3   947.8    0.00 
 337   17:40   0.00   50.2    17   19.5   356    27.5   947.9    0.00 
 337   17:50   0.00   49.9    17   17.8   357    26.9   947.9    0.00 
 337   18:00   0.00   49.9    17   19.5   348    25.9   947.8    0.00 
 337   18:10   0.00   49.6    17   17.2   347    24.6   947.9    0.00 
 337   18:20   0.00   49.4    17   15.9   352    23.1   948.0    0.00 
 337   18:30   0.00   49.0    18   13.7     5    20.2   948.0    0.00 
 337   18:40   0.00   48.9    18   15.1     2    21.6   948.1    0.00 
 337   18:50   0.00   48.9    17   15.3   357    20.0   948.2    0.00 
 337   19:00   0.00   48.8    17   15.5   355    21.8   948.3    0.00 
 337   19:10   0.00   48.6    17   15.3   352    20.9   948.3    0.00 
 337   19:20   0.00   48.4    18   13.4   350    18.6   948.4    0.00 
 337   19:30   0.00   48.4    18   14.2   354    21.7   948.5    0.00 
 337   19:40   0.00   48.4    18   15.2   354    21.5   948.6    0.00 
 337   19:50   0.00   48.5    17   15.3   354    20.2   948.6    0.00 
 337   20:00   0.00   48.2    18   11.7     6    17.5   948.8    0.00 
 337   20:10   0.00   48.3    18   12.8     7    19.2   948.9    0.00 
 337   20:20   0.00   48.7    17   13.9     5    22.6   949.0    0.00 
 337   20:30   0.00   48.4    18   14.9     1    20.0   949.0    0.00 
 337   20:40   0.00   48.6    17   15.9     2    23.5   949.0    0.00 
 337   20:50   0.00   48.6    17   15.2     0    20.8   949.1    0.00 
 337   21:00   0.00   48.6    18   15.5     4    22.1   949.2    0.00 
 337   21:10   0.00   48.2    18   10.2    14    19.6   949.4    0.00 
 337   21:20   0.00   48.4    18   11.3    12    17.8   949.4    0.00 
 337   21:30   0.00   48.5    18   10.6    14    17.0   949.5    0.00 
 337   21:40   0.00   47.9    18   10.9   360    16.5   949.5    0.00 
 337   21:50   0.00   47.5    19   11.4     2    18.1   949.5    0.00 
 337   22:00   0.00   47.8    19   12.8     1    18.5   949.5    0.00 
 337   22:10   0.00   47.8    19   12.3     4    19.2   949.6    0.00 
 337   22:20   0.00   47.7    19   11.4    13    16.6   949.8    0.00 
 337   22:30   0.00   48.3    18   13.3    20    20.1   949.7    0.00 
 337   22:40   0.00   48.1    18   10.5    18    17.0   949.6    0.00 
 337   22:50   0.00   48.1    18    9.6    11    17.7   949.7    0.00 
 337   23:00   0.00   47.9    18    8.4   356    13.2   949.8    0.00 
 337   23:10   0.00   47.8    18    9.6     0    15.9   949.7    0.00 
 337   23:20   0.00   47.2    20    8.4     6    14.2   949.7    0.00 
 337   23:30   0.00   46.5    21   10.1   353    15.0   949.7    0.00 
 337   23:40   0.00   47.3    19   11.9   356    20.4   949.6    0.00 
 337   23:50   0.00   47.9    18   13.2   354    19.4   949.5    0.00 
 338    0:00   0.00   47.9    18   14.3   353    21.6   949.5    0.00 
 338    0:10   0.00   47.5    19   12.0   359    17.2   949.7    0.00 
 338    0:20   0.00   47.1    19   12.0   358    16.7   949.7    0.00 
 338    0:30   0.00   47.1    20   11.6     6    17.5   949.7    0.00 
 338    0:40   0.00   46.8    20   11.7     7    16.9   949.6    0.00 
 338    0:50   0.00   47.2    19   13.6   350    17.1   949.5    0.00 
 338    1:00   0.00   47.5    19   13.6   347    17.9   949.6    0.00 
 338    1:10   0.00   47.3    19   12.1   340    17.1   949.7    0.00 
 338    1:20   0.00   47.3    19   12.4   340    18.9   949.6    0.00 
 338    1:30   0.00   47.3    19   13.7   334    19.0   949.4    0.00 
 338    1:40   0.00   47.3    19   15.1   337    20.0   949.3    0.00 
 338    1:50   0.00   47.8    18   15.6   340    20.7   949.2    0.00 
 338    2:00   0.00   47.8    18   15.6   344    21.4   949.2    0.00 
 338    2:10   0.00   47.6    18   14.8   345    18.6   949.3    0.00 
 338    2:20   0.00   47.0    19   12.9   345    18.0   949.5    0.00 
 338    2:30   0.00   46.2    20   13.4   340    18.6   949.7    0.00 
 338    2:40   0.00   46.6    20   15.6   341    21.6   949.8    0.00 
 338    2:50   0.00   47.1    19   17.5   344    25.1   949.7    0.00 
 338    3:00   0.00   47.5    18   17.4   347    25.6   949.8    0.00 
 338    3:10   0.00   47.1    19   15.5   348    21.3   949.8    0.00 
 338    3:20   0.00   47.2    19   14.0   346    23.0   949.8    0.00 
 338    3:30   0.00   46.6    19   10.3   335    15.4   949.7    0.00 
 338    3:40   0.00   46.7    19   12.2   338    18.7   949.6    0.00 
 338    3:50   0.00   46.9    19   12.6   344    20.8   949.3    0.00 
 338    4:00   0.00   46.5    19   11.9   333    17.9   949.3    0.00 
 338    4:10   0.00   46.7    19   14.9   341    23.1   949.3    0.00 
 338    4:20   0.00   47.0    18   13.0   340    18.5   949.4    0.00 
 338    4:30   0.00   46.9    18   14.3   334    20.9   949.2    0.00 
 338    4:40   0.00   47.5    18   16.4   333    20.9   949.1    0.00 
 338    4:50   0.00   46.7    18   13.6   322    17.8   949.2    0.00 
 338    5:00   0.00   45.8    20   14.2   306    18.8   949.6    0.00 
 338    5:10   0.00   45.1    21   13.7   319    16.9   949.7    0.00 
 338    5:20   0.00   45.6    20   13.8   333    18.3   949.5    0.00 

Return to Motte Rimrock Reserve graphs page.


Western Regional Climate Center,wrcc@dri.edu